Brush Creek, Tennessee
Current Conditions -  °F | °C
As of 1:53 AM on Tuesday 27 Jan 2015 (Local Time) from KBNA Reporting Station
Overcast Overcast  
Wind Chill: 29°   Ceiling: 5000
Heat Index: 34°   Visibility: 8mi
Dew Point: 31°   Wind: 6mph
Humidity: 89%   Direction: 180°S
Pressure: 29.9"   Gusts: NA
Location:  36.12°N, 86.03°W
Report Text: KBNA 270753Z 18005KT 8SM OVC050 01/M01 A2990 RMK AO2 SLP127 T00111006
Loading
Personal Weather Stations






























Interactive Weather Map New forecast layout! Learn more

10-Day Weather Forecast

Advertisements
Track Severe Weather on mobile